Time,TemperatureF,DewpointF,PressureIn,WindDirection,WindDirectionDegrees,WindSpeedMPH,WindSpeedGustMPH,Humidity,HourlyPrecipIn,Conditions,Clouds,dailyrainin,SoftwareType,DateUTC
2013-10-15 00:01:00,49.5,30.1,29.83,SSE,151,0.0,0.0,47,0.00,,CLR,0.00,VWS V14.01,2013-10-15 04:01:00,
2013-10-15 00:02:00,49.5,30.1,29.83,SSE,151,0.0,0.0,47,0.00,,CLR,0.00,VWS V14.01,2013-10-15 04:02:00,
2013-10-15 00:07:00,49.5,30.1,29.83,SSE,151,0.0,0.0,47,0.00,,CLR,0.00,VWS V14.01,2013-10-15 04:07:00,
2013-10-15 00:12:00,49.1,29.8,29.83,SSE,151,0.0,0.0,47,0.00,,CLR,0.00,VWS V14.01,2013-10-15 04:12:00,
2013-10-15 00:17:00,49.1,29.8,29.83,SSE,151,0.0,0.0,47,0.00,,CLR,0.00,VWS V14.01,2013-10-15 04:17:00,
2013-10-15 00:22:00,49.1,29.8,29.83,SSE,151,0.0,0.0,47,0.00,,CLR,0.00,VWS V14.01,2013-10-15 04:22:00,
2013-10-15 00:27:00,48.9,29.6,29.83,SSE,151,0.0,0.0,47,0.00,,CLR,0.00,VWS V14.01,2013-10-15 04:27:00,
2013-10-15 00:32:00,48.9,29.6,29.83,SSE,151,0.0,0.0,47,0.00,,CLR,0.00,VWS V14.01,2013-10-15 04:32:00,
2013-10-15 00:37:00,48.9,29.6,29.83,SSE,151,0.0,0.0,47,0.00,,CLR,0.00,VWS V14.01,2013-10-15 04:37:00,
2013-10-15 00:42:00,48.7,29.9,29.83,SSE,151,0.0,0.0,48,0.00,,CLR,0.00,VWS V14.01,2013-10-15 04:42:00,
2013-10-15 00:47:00,48.7,29.9,29.83,SSE,151,0.0,0.0,48,0.00,,CLR,0.00,VWS V14.01,2013-10-15 04:47:00,
2013-10-15 00:52:00,48.9,30.1,29.80,SSE,151,0.0,0.0,48,0.00,,CLR,0.00,VWS V14.01,2013-10-15 04:52:00,
2013-10-15 00:57:00,48.7,29.9,29.80,SSE,151,0.0,0.0,48,0.00,,CLR,0.00,VWS V14.01,2013-10-15 04:57:00,
2013-10-15 01:02:00,48.7,29.9,29.80,SSE,151,0.0,0.0,48,0.00,,CLR,0.00,VWS V14.01,2013-10-15 05:02:00,
2013-10-15 01:07:00,48.6,29.8,29.80,SSE,151,0.0,0.0,48,0.00,,CLR,0.00,VWS V14.01,2013-10-15 05:07:00,
2013-10-15 01:12:00,48.6,29.8,29.80,SSE,151,0.0,0.0,48,0.00,,CLR,0.00,VWS V14.01,2013-10-15 05:12:00,
2013-10-15 01:17:00,48.6,29.8,29.80,SSE,151,0.0,0.0,48,0.00,,CLR,0.00,VWS V14.01,2013-10-15 05:17:00,
2013-10-15 01:22:00,48.6,29.8,29.80,SSE,151,0.0,0.0,48,0.00,,CLR,0.00,VWS V14.01,2013-10-15 05:22:00,
2013-10-15 01:27:00,48.4,29.6,29.80,SSE,151,0.0,0.0,48,0.00,,CLR,0.00,VWS V14.01,2013-10-15 05:27:00,
2013-10-15 01:32:00,48.2,29.5,29.80,SSE,151,0.0,0.0,48,0.00,,CLR,0.00,VWS V14.01,2013-10-15 05:32:00,
2013-10-15 05:41:00,46.6,30.4,29.80,SSE,151,0.0,0.0,53,0.00,,CLR,0.00,VWS V14.01,2013-10-15 09:41:00,
2013-10-15 05:46:00,46.6,30.4,29.80,SSE,151,0.0,0.0,53,0.00,,CLR,0.00,VWS V14.01,2013-10-15 09:46:00,
2013-10-15 05:51:00,46.6,30.4,29.80,SSE,151,0.0,0.0,53,0.00,,CLR,0.00,VWS V14.01,2013-10-15 09:51:00,
2013-10-15 05:56:00,46.6,30.4,29.80,SSE,151,0.0,0.0,53,0.00,,CLR,0.00,VWS V14.01,2013-10-15 09:56:00,
2013-10-15 06:01:00,46.6,30.4,29.80,SSE,151,0.0,0.0,53,0.00,,CLR,0.00,VWS V14.01,2013-10-15 10:01:00,
2013-10-15 06:06:00,46.6,30.4,29.80,SSE,151,0.0,0.0,53,0.00,,CLR,0.00,VWS V14.01,2013-10-15 10:06:00,
2013-10-15 06:11:00,46.6,30.4,29.77,SSE,151,0.0,0.0,53,0.00,,CLR,0.00,VWS V14.01,2013-10-15 10:11:00,
2013-10-15 06:16:00,46.6,30.4,29.77,SSE,151,0.0,0.0,53,0.00,,CLR,0.00,VWS V14.01,2013-10-15 10:16:00,
2013-10-15 06:21:00,46.4,30.2,29.77,SSE,151,0.0,0.0,53,0.00,,CLR,0.00,VWS V14.01,2013-10-15 10:21:00,
2013-10-15 06:26:00,46.4,30.7,29.77,SSE,151,0.0,0.0,54,0.00,,CLR,0.00,VWS V14.01,2013-10-15 10:26:00,
2013-10-15 06:31:00,46.4,30.7,29.77,SSE,151,0.0,0.0,54,0.00,,CLR,0.00,VWS V14.01,2013-10-15 10:31:00,
2013-10-15 06:36:00,46.4,30.7,29.77,SSE,151,0.0,0.0,54,0.00,,CLR,0.00,VWS V14.01,2013-10-15 10:36:00,
2013-10-15 06:41:00,46.4,30.7,29.77,SSE,151,0.0,0.0,54,0.00,,CLR,0.00,VWS V14.01,2013-10-15 10:41:00,
2013-10-15 06:46:00,46.4,30.7,29.77,SSE,151,0.0,0.0,54,0.00,,CLR,0.00,VWS V14.01,2013-10-15 10:46:00,
2013-10-15 06:51:00,46.2,31.0,29.77,SSE,151,0.0,0.0,55,0.00,,CLR,0.00,VWS V14.01,2013-10-15 10:51:00,
2013-10-15 06:56:00,46.2,31.0,29.77,SSE,151,0.0,0.0,55,0.00,,CLR,0.00,VWS V14.01,2013-10-15 10:56:00,
2013-10-15 07:01:00,46.2,31.0,29.77,SSE,151,0.0,0.0,55,0.00,,CLR,0.00,VWS V14.01,2013-10-15 11:01:00,
2013-10-15 07:06:00,46.2,31.0,29.77,SSE,151,0.0,0.0,55,0.00,,CLR,0.00,VWS V14.01,2013-10-15 11:06:00,
2013-10-15 07:11:00,46.0,30.8,29.77,SSE,151,0.0,0.0,55,0.00,,CLR,0.00,VWS V14.01,2013-10-15 11:11:00,
2013-10-15 07:16:00,46.0,30.8,29.77,SSE,151,0.0,0.0,55,0.00,,CLR,0.00,VWS V14.01,2013-10-15 11:16:00,
2013-10-15 07:21:00,46.0,31.2,29.77,SSE,151,0.0,0.0,56,0.00,,CLR,0.00,VWS V14.01,2013-10-15 11:21:00,
2013-10-15 07:26:00,46.2,31.4,29.77,SSE,151,0.0,0.0,56,0.00,,CLR,0.00,VWS V14.01,2013-10-15 11:26:00,
2013-10-15 07:31:00,46.2,31.4,29.77,SSE,151,0.0,0.0,56,0.00,,CLR,0.00,VWS V14.01,2013-10-15 11:31:00,
2013-10-15 07:36:00,46.4,31.6,29.77,SSE,151,0.0,0.0,56,0.00,,CLR,0.00,VWS V14.01,2013-10-15 11:36:00,
2013-10-15 07:41:00,46.4,31.6,29.80,SSE,151,0.0,0.0,56,0.00,,CLR,0.00,VWS V14.01,2013-10-15 11:41:00,
2013-10-15 07:46:00,46.4,31.6,29.80,SSE,151,0.0,0.0,56,0.00,,CLR,0.00,VWS V14.01,2013-10-15 11:46:00,
2013-10-15 07:51:00,46.4,31.6,29.80,SSE,151,0.0,0.0,56,0.00,,CLR,0.00,VWS V14.01,2013-10-15 11:51:00,
2013-10-15 07:56:00,46.4,31.6,29.80,SSE,151,0.0,0.0,56,0.00,,CLR,0.00,VWS V14.01,2013-10-15 11:56:00,
2013-10-15 08:01:00,46.6,32.2,29.80,SSE,151,0.0,0.0,57,0.00,,CLR,0.00,VWS V14.01,2013-10-15 12:01:00,
2013-10-15 08:06:00,46.8,32.3,29.80,SSE,151,0.0,0.0,57,0.00,,CLR,0.00,VWS V14.01,2013-10-15 12:06:00,
2013-10-15 08:11:00,46.9,33.0,29.80,SSE,151,0.0,0.0,58,0.00,,CLR,0.00,VWS V14.01,2013-10-15 12:11:00,
2013-10-15 08:16:00,47.1,33.5,29.80,SSE,151,0.0,0.0,59,0.00,,CLR,0.00,VWS V14.01,2013-10-15 12:16:00,
2013-10-15 08:21:00,47.3,33.7,29.80,SSE,151,0.0,0.0,59,0.00,,CLR,0.00,VWS V14.01,2013-10-15 12:21:00,
2013-10-15 08:26:00,47.7,34.0,29.80,SSE,151,0.0,0.0,59,0.00,,CLR,0.00,VWS V14.01,2013-10-15 12:26:00,
2013-10-15 08:31:00,48.0,34.8,29.80,SSE,151,0.0,0.0,60,0.00,,CLR,0.00,VWS V14.01,2013-10-15 12:31:00,
2013-10-15 08:36:00,48.4,35.2,29.80,SSE,151,0.0,0.0,60,0.00,,CLR,0.00,VWS V14.01,2013-10-15 12:36:00,
2013-10-15 08:41:00,48.7,35.9,29.80,SSE,151,0.0,0.0,61,0.00,,CLR,0.00,VWS V14.01,2013-10-15 12:41:00,
2013-10-15 08:46:00,49.1,36.2,29.80,SSE,151,0.0,0.0,61,0.00,,CLR,0.00,VWS V14.01,2013-10-15 12:46:00,
2013-10-15 08:51:00,49.6,36.8,29.80,SSE,151,0.0,0.0,61,0.00,,CLR,0.00,VWS V14.01,2013-10-15 12:51:00,
2013-10-15 08:56:00,49.8,37.3,29.80,SSE,151,0.0,0.0,62,0.00,,CLR,0.00,VWS V14.01,2013-10-15 12:56:00,
2013-10-15 09:01:00,50.5,38.0,29.80,SSE,151,0.0,0.0,62,0.00,,CLR,0.00,VWS V14.01,2013-10-15 13:01:00,
2013-10-15 09:06:00,51.4,38.9,29.80,SSE,151,0.0,0.0,62,0.00,,CLR,0.00,VWS V14.01,2013-10-15 13:06:00,
2013-10-15 09:11:00,51.8,39.2,29.80,SSE,151,0.0,0.0,62,0.00,,CLR,0.00,VWS V14.01,2013-10-15 13:11:00,
2013-10-15 09:16:00,52.0,39.4,29.80,SSE,151,0.0,0.0,62,0.00,,CLR,0.00,VWS V14.01,2013-10-15 13:16:00,
2013-10-15 09:21:00,52.3,39.7,29.80,SSE,151,0.0,0.0,62,0.00,,CLR,0.00,VWS V14.01,2013-10-15 13:21:00,
2013-10-15 09:26:00,52.9,40.6,29.80,SSE,151,0.0,0.0,63,0.00,,CLR,0.00,VWS V14.01,2013-10-15 13:26:00,
2013-10-15 09:31:00,53.6,41.3,29.80,SSE,151,0.0,0.0,63,0.00,,CLR,0.00,VWS V14.01,2013-10-15 13:31:00,
2013-10-15 09:36:00,54.0,41.7,29.80,SSE,151,0.0,0.0,63,0.00,,CLR,0.00,VWS V14.01,2013-10-15 13:36:00,
2013-10-15 09:41:00,54.5,42.6,29.80,SSE,151,0.0,0.0,64,0.00,,CLR,0.00,VWS V14.01,2013-10-15 13:41:00,
2013-10-15 09:46:00,55.2,43.7,29.80,SSE,151,0.0,0.0,65,0.00,,CLR,0.00,VWS V14.01,2013-10-15 13:46:00,
2013-10-15 09:51:00,55.9,44.8,29.80,NW,306,0.0,0.0,66,0.00,,CLR,0.00,VWS V14.01,2013-10-15 13:51:00,
2013-10-15 09:56:00,56.7,45.4,29.80,NW,306,0.0,0.0,66,0.00,,CLR,0.00,VWS V14.01,2013-10-15 13:56:00,
2013-10-15 10:01:00,56.8,45.6,29.80,NW,306,0.0,0.0,66,0.00,,CLR,0.00,VWS V14.01,2013-10-15 14:01:00,
2013-10-15 10:06:00,57.4,45.7,29.80,WNW,299,0.0,0.0,65,0.00,,CLR,0.00,VWS V14.01,2013-10-15 14:06:00,
2013-10-15 10:11:00,58.1,40.6,29.80,WNW,300,0.0,0.0,52,0.00,,CLR,0.00,VWS V14.01,2013-10-15 14:11:00,
2013-10-15 10:16:00,58.3,38.7,29.80,WNW,300,0.0,0.0,48,0.00,,CLR,0.00,VWS V14.01,2013-10-15 14:16:00,
2013-10-15 10:21:00,59.2,33.6,29.80,WNW,300,0.0,0.0,38,0.00,,CLR,0.00,VWS V14.01,2013-10-15 14:21:00,
2013-10-15 10:26:00,59.7,33.4,29.80,WNW,300,0.0,0.0,37,0.00,,CLR,0.00,VWS V14.01,2013-10-15 14:26:00,
2013-10-15 10:31:00,60.3,33.9,29.80,WNW,300,0.0,0.0,37,0.00,,CLR,0.00,VWS V14.01,2013-10-15 14:31:00,
2013-10-15 10:36:00,60.4,34.1,29.80,WNW,300,0.0,0.0,37,0.00,,CLR,0.00,VWS V14.01,2013-10-15 14:36:00,
2013-10-15 10:41:00,61.0,26.8,29.80,WNW,300,0.0,0.0,27,0.00,,CLR,0.00,VWS V14.01,2013-10-15 14:41:00,
2013-10-15 10:46:00,61.9,26.6,29.80,WNW,301,0.0,0.0,26,0.00,,CLR,0.00,VWS V14.01,2013-10-15 14:46:00,
2013-10-15 10:51:00,62.2,26.0,29.80,NW,307,0.0,3.1,25,0.00,,CLR,0.00,VWS V14.01,2013-10-15 14:51:00,
2013-10-15 10:56:00,62.8,26.5,29.80,NW,307,0.0,0.0,25,0.00,,CLR,0.00,VWS V14.01,2013-10-15 14:56:00,
2013-10-15 11:01:00,63.3,26.9,29.80,NW,307,0.0,0.0,25,0.00,,CLR,0.00,VWS V14.01,2013-10-15 15:01:00,
2013-10-15 11:06:00,64.4,26.9,29.80,ESE,114,0.0,0.0,24,0.00,,CLR,0.00,VWS V14.01,2013-10-15 15:06:00,
2013-10-15 11:11:00,64.4,26.9,29.77,NW,312,2.2,2.2,24,0.00,,CLR,0.00,VWS V14.01,2013-10-15 15:11:00,
2013-10-15 11:16:00,65.7,26.9,29.77,NW,305,0.0,0.0,23,0.00,,CLR,0.00,VWS V14.01,2013-10-15 15:16:00,
2013-10-15 11:21:00,66.2,26.3,29.77,NW,305,0.0,0.0,22,0.00,,CLR,0.00,VWS V14.01,2013-10-15 15:21:00,
2013-10-15 11:26:00,66.7,24.4,29.77,NW,305,0.0,0.0,20,0.00,,CLR,0.00,VWS V14.01,2013-10-15 15:26:00,
2013-10-15 11:31:00,67.1,20.9,29.77,NNW,330,0.0,0.0,17,0.00,,CLR,0.00,VWS V14.01,2013-10-15 15:31:00,
2013-10-15 11:36:00,66.9,20.7,29.77,NW,312,0.0,0.0,17,0.00,,CLR,0.00,VWS V14.01,2013-10-15 15:36:00,
2013-10-15 11:41:00,67.5,25.0,29.77,ESE,109,0.0,0.0,20,0.00,,CLR,0.00,VWS V14.01,2013-10-15 15:41:00,
2013-10-15 11:46:00,68.4,21.9,29.77,NW,305,0.0,0.0,17,0.00,,CLR,0.00,VWS V14.01,2013-10-15 15:46:00,
2013-10-15 11:51:00,69.3,22.6,29.77,SSW,210,0.0,0.0,17,0.00,,CLR,0.00,VWS V14.01,2013-10-15 15:51:00,
2013-10-15 11:56:00,69.3,22.6,29.77,NW,321,0.0,0.0,17,0.00,,CLR,0.00,VWS V14.01,2013-10-15 15:56:00,
2013-10-15 12:01:00,69.3,22.6,29.77,NW,307,0.0,0.0,17,0.00,,CLR,0.00,VWS V14.01,2013-10-15 16:01:00,
2013-10-15 12:06:00,69.4,22.8,29.77,NW,307,0.0,0.0,17,0.00,,CLR,0.00,VWS V14.01,2013-10-15 16:06:00,
2013-10-15 12:11:00,69.4,22.8,29.77,NNE,25,0.0,0.0,17,0.00,,CLR,0.00,VWS V14.01,2013-10-15 16:11:00,
2013-10-15 12:16:00,70.0,23.2,29.77,NNE,25,0.0,0.0,17,0.00,,CLR,0.00,VWS V14.01,2013-10-15 16:16:00,
2013-10-15 12:21:00,70.2,23.4,29.77,ESE,120,0.0,0.0,17,0.00,,CLR,0.00,VWS V14.01,2013-10-15 16:21:00,
2013-10-15 12:26:00,70.9,23.9,29.77,East,90,0.0,0.0,17,0.00,,CLR,0.00,VWS V14.01,2013-10-15 16:26:00,
2013-10-15 17:18:00,68.4,19.0,29.77,SSE,148,0.0,0.0,15,0.00,,CLR,0.00,VWS V14.01,2013-10-15 21:18:00,
2013-10-15 17:23:00,68.0,18.7,29.68,SSE,148,0.0,0.0,15,0.00,,CLR,0.00,VWS V14.01,2013-10-15 21:23:00,
2013-10-15 17:28:00,67.6,18.4,29.68,SSE,148,0.0,0.0,15,0.00,,CLR,0.00,VWS V14.01,2013-10-15 21:28:00,
2013-10-15 17:33:00,67.3,18.1,29.68,SSE,148,0.0,0.0,15,0.00,,CLR,0.00,VWS V14.01,2013-10-15 21:33:00,
2013-10-15 17:38:00,67.1,17.9,29.68,SSE,148,0.0,0.0,15,0.00,,CLR,0.00,VWS V14.01,2013-10-15 21:38:00,
2013-10-15 17:43:00,66.7,17.6,29.68,SSE,148,0.0,0.0,15,0.00,,CLR,0.00,VWS V14.01,2013-10-15 21:43:00,
2013-10-15 17:48:00,66.2,17.2,29.68,SSE,148,0.0,0.0,15,0.00,,CLR,0.00,VWS V14.01,2013-10-15 21:48:00,
2013-10-15 17:53:00,65.8,16.9,29.68,SSE,166,0.0,0.0,15,0.00,,CLR,0.00,VWS V14.01,2013-10-15 21:53:00,
2013-10-15 17:58:00,65.7,16.8,29.68,SE,146,3.1,3.1,15,0.00,,CLR,0.00,VWS V14.01,2013-10-15 21:58:00,
2013-10-15 18:03:00,65.5,16.6,29.68,SSE,149,0.0,0.0,15,0.00,,CLR,0.00,VWS V14.01,2013-10-15 22:03:00,
2013-10-15 18:08:00,64.9,16.2,29.68,SE,135,0.0,0.0,15,0.00,,CLR,0.00,VWS V14.01,2013-10-15 22:08:00,
2013-10-15 18:13:00,64.8,16.1,29.68,SSE,147,0.0,0.0,15,0.00,,CLR,0.00,VWS V14.01,2013-10-15 22:13:00,
2013-10-15 18:18:00,64.4,15.8,29.68,SSE,151,0.0,0.0,15,0.00,,CLR,0.00,VWS V14.01,2013-10-15 22:18:00,
2013-10-15 18:23:00,64.0,17.0,29.71,SE,138,0.0,0.0,16,0.00,,CLR,0.00,VWS V14.01,2013-10-15 22:23:00,
2013-10-15 18:28:00,63.7,16.7,29.71,SSE,150,0.0,0.0,16,0.00,,CLR,0.00,VWS V14.01,2013-10-15 22:28:00,
2013-10-15 18:33:00,63.1,16.2,29.71,SSE,153,0.0,0.0,16,0.00,,CLR,0.00,VWS V14.01,2013-10-15 22:33:00,
2013-10-15 18:38:00,62.8,15.9,29.71,SSE,153,0.0,0.0,16,0.00,,CLR,0.00,VWS V14.01,2013-10-15 22:38:00,
2013-10-15 18:43:00,62.2,15.5,29.71,SSE,153,0.0,0.0,16,0.00,,CLR,0.00,VWS V14.01,2013-10-15 22:43:00,
2013-10-15 18:48:00,61.7,19.0,29.71,SSE,153,0.0,0.0,19,0.00,,CLR,0.00,VWS V14.01,2013-10-15 22:48:00,
2013-10-15 18:53:00,61.3,18.8,29.71,SSE,153,0.0,0.0,19,0.00,,CLR,0.00,VWS V14.01,2013-10-15 22:53:00,
2013-10-15 18:58:00,61.0,18.5,29.71,SSE,153,0.0,0.0,19,0.00,,CLR,0.00,VWS V14.01,2013-10-15 22:58:00,
2013-10-15 19:03:00,60.4,18.0,29.71,SSE,153,0.0,0.0,19,0.00,,CLR,0.00,VWS V14.01,2013-10-15 23:03:00,
2013-10-15 19:08:00,59.9,17.6,29.71,SSE,153,0.0,0.0,19,0.00,,CLR,0.00,VWS V14.01,2013-10-15 23:08:00,
2013-10-15 19:13:00,59.5,20.7,29.71,SSE,153,0.0,0.0,22,0.00,,CLR,0.00,VWS V14.01,2013-10-15 23:13:00,
2013-10-15 19:18:00,59.2,20.4,29.71,SSE,153,0.0,0.0,22,0.00,,CLR,0.00,VWS V14.01,2013-10-15 23:18:00,
2013-10-15 19:23:00,58.8,22.1,29.71,SSE,153,0.0,0.0,24,0.00,,CLR,0.00,VWS V14.01,2013-10-15 23:23:00,
2013-10-15 19:28:00,58.3,22.6,29.71,SSE,153,0.0,0.0,25,0.00,,CLR,0.00,VWS V14.01,2013-10-15 23:28:00,
2013-10-15 19:33:00,57.9,22.3,29.71,SSE,153,0.0,0.0,25,0.00,,CLR,0.00,VWS V14.01,2013-10-15 23:33:00,
2013-10-15 19:38:00,57.6,22.0,29.71,SSE,153,0.0,0.0,25,0.00,,CLR,0.00,VWS V14.01,2013-10-15 23:38:00,
2013-10-15 19:43:00,57.2,22.6,29.71,SSE,153,0.0,0.0,26,0.00,,CLR,0.00,VWS V14.01,2013-10-15 23:43:00,
2013-10-15 19:48:00,56.8,23.2,29.71,SSE,153,0.0,0.0,27,0.00,,CLR,0.00,VWS V14.01,2013-10-15 23:48:00,
2013-10-15 19:53:00,56.5,23.8,29.71,SSE,153,0.0,0.0,28,0.00,,CLR,0.00,VWS V14.01,2013-10-15 23:53:00,
2013-10-15 19:58:00,56.3,24.5,29.71,SSE,153,0.0,0.0,29,0.00,,CLR,0.00,VWS V14.01,2013-10-15 23:58:00,
2013-10-15 20:03:00,56.1,24.3,29.71,SSE,153,0.0,0.0,29,0.00,,CLR,0.00,VWS V14.01,2013-10-16 00:03:00,
2013-10-15 20:08:00,55.8,24.8,29.71,SSE,153,0.0,0.0,30,0.00,,CLR,0.00,VWS V14.01,2013-10-16 00:08:00,
2013-10-15 20:13:00,55.6,25.5,29.71,SSE,153,0.0,0.0,31,0.00,,CLR,0.00,VWS V14.01,2013-10-16 00:13:00,
2013-10-15 20:18:00,55.4,25.3,29.71,SSE,153,0.0,0.0,31,0.00,,CLR,0.00,VWS V14.01,2013-10-16 00:18:00,
2013-10-15 20:23:00,55.2,25.9,29.71,SSE,161,0.0,0.0,32,0.00,,CLR,0.00,VWS V14.01,2013-10-16 00:23:00,
2013-10-15 20:28:00,55.0,26.5,29.71,SSE,161,0.0,0.0,33,0.00,,CLR,0.00,VWS V14.01,2013-10-16 00:28:00,
2013-10-15 20:33:00,54.7,26.2,29.71,SSE,161,0.0,0.0,33,0.00,,CLR,0.00,VWS V14.01,2013-10-16 00:33:00,
2013-10-15 20:38:00,54.5,26.0,29.71,SSE,161,0.0,0.0,33,0.00,,CLR,0.00,VWS V14.01,2013-10-16 00:38:00,
2013-10-15 20:43:00,54.1,25.7,29.71,SSE,161,0.0,0.0,33,0.00,,CLR,0.00,VWS V14.01,2013-10-16 00:43:00,
2013-10-15 20:48:00,54.0,26.2,29.71,SSE,161,0.0,0.0,34,0.00,,CLR,0.00,VWS V14.01,2013-10-16 00:48:00,
2013-10-15 20:53:00,53.6,26.6,29.71,SSE,161,0.0,0.0,35,0.00,,CLR,0.00,VWS V14.01,2013-10-16 00:53:00,
2013-10-15 20:58:00,53.4,27.1,29.71,SSE,161,0.0,0.0,36,0.00,,CLR,0.00,VWS V14.01,2013-10-16 00:58:00,
2013-10-15 21:03:00,53.2,27.0,29.71,SSE,161,0.0,0.0,36,0.00,,CLR,0.00,VWS V14.01,2013-10-16 01:03:00,
2013-10-15 21:08:00,53.1,26.8,29.71,SSE,161,0.0,0.0,36,0.00,,CLR,0.00,VWS V14.01,2013-10-16 01:08:00,
2013-10-15 21:13:00,52.9,26.7,29.71,SSE,161,0.0,0.0,36,0.00,,CLR,0.00,VWS V14.01,2013-10-16 01:13:00,
2013-10-15 21:18:00,52.5,26.4,29.71,SSE,161,0.0,0.0,36,0.00,,CLR,0.00,VWS V14.01,2013-10-16 01:18:00,
2013-10-15 21:23:00,52.3,26.9,29.71,SSE,161,0.0,0.0,37,0.00,,CLR,0.00,VWS V14.01,2013-10-16 01:23:00,
2013-10-15 21:28:00,52.2,26.7,29.71,SSE,161,0.0,0.0,37,0.00,,CLR,0.00,VWS V14.01,2013-10-16 01:28:00,
2013-10-15 21:33:00,52.2,26.7,29.71,SSE,161,0.0,0.0,37,0.00,,CLR,0.00,VWS V14.01,2013-10-16 01:33:00,
2013-10-15 21:38:00,52.0,26.5,29.71,SSE,161,0.0,0.0,37,0.00,,CLR,0.00,VWS V14.01,2013-10-16 01:38:00,
2013-10-15 21:43:00,51.8,26.4,29.71,SSE,161,0.0,0.0,37,0.00,,CLR,0.00,VWS V14.01,2013-10-16 01:43:00,
2013-10-15 21:48:00,51.6,26.9,29.71,SSE,161,0.0,0.0,38,0.00,,CLR,0.00,VWS V14.01,2013-10-16 01:48:00,
2013-10-15 21:53:00,51.6,26.9,29.71,SSE,161,0.0,0.0,38,0.00,,CLR,0.00,VWS V14.01,2013-10-16 01:53:00,
2013-10-15 21:58:00,51.4,26.7,29.71,SSE,161,0.0,0.0,38,0.00,,CLR,0.00,VWS V14.01,2013-10-16 01:58:00,
2013-10-15 22:03:00,51.3,27.2,29.71,SSE,161,0.0,0.0,39,0.00,,CLR,0.00,VWS V14.01,2013-10-16 02:03:00,
2013-10-15 22:08:00,51.3,27.2,29.71,SSE,161,0.0,0.0,39,0.00,,CLR,0.00,VWS V14.01,2013-10-16 02:08:00,
2013-10-15 22:13:00,51.1,27.0,29.71,SSE,161,0.0,0.0,39,0.00,,CLR,0.00,VWS V14.01,2013-10-16 02:13:00,
2013-10-15 22:18:00,50.9,27.5,29.71,SSE,161,0.0,0.0,40,0.00,,CLR,0.00,VWS V14.01,2013-10-16 02:18:00,
2013-10-15 22:23:00,50.9,27.5,29.71,SSE,161,0.0,0.0,40,0.00,,CLR,0.00,VWS V14.01,2013-10-16 02:23:00,
2013-10-15 22:28:00,50.9,27.5,29.71,SSE,161,0.0,0.0,40,0.00,,CLR,0.00,VWS V14.01,2013-10-16 02:28:00,
2013-10-15 22:33:00,50.7,27.9,29.71,SSE,161,0.0,0.0,41,0.00,,CLR,0.00,VWS V14.01,2013-10-16 02:33:00,
2013-10-15 22:38:00,50.5,27.7,29.71,SSE,161,0.0,0.0,41,0.00,,CLR,0.00,VWS V14.01,2013-10-16 02:38:00,
2013-10-15 22:43:00,50.4,27.6,29.71,SSE,161,0.0,0.0,41,0.00,,CLR,0.00,VWS V14.01,2013-10-16 02:43:00,
2013-10-15 22:48:00,50.2,27.4,29.71,SSE,161,0.0,0.0,41,0.00,,CLR,0.00,VWS V14.01,2013-10-16 02:48:00,
2013-10-15 22:53:00,50.2,27.4,29.68,SSE,161,0.0,0.0,41,0.00,,CLR,0.00,VWS V14.01,2013-10-16 02:53:00,
2013-10-15 22:58:00,50.2,28.0,29.68,SSE,161,0.0,0.0,42,0.00,,CLR,0.00,VWS V14.01,2013-10-16 02:58:00,
2013-10-15 23:03:00,50.0,27.8,29.68,SSE,161,0.0,0.0,42,0.00,,CLR,0.00,VWS V14.01,2013-10-16 03:03:00,
2013-10-15 23:08:00,50.0,28.4,29.68,SSE,161,0.0,0.0,43,0.00,,CLR,0.00,VWS V14.01,2013-10-16 03:08:00,
2013-10-15 23:13:00,50.0,28.4,29.68,SSE,161,0.0,0.0,43,0.00,,CLR,0.00,VWS V14.01,2013-10-16 03:13:00,
2013-10-15 23:18:00,49.8,28.8,29.68,SSE,161,0.0,0.0,44,0.00,,CLR,0.00,VWS V14.01,2013-10-16 03:18:00,
2013-10-15 23:23:00,49.8,28.8,29.68,SSE,161,0.0,0.0,44,0.00,,CLR,0.00,VWS V14.01,2013-10-16 03:23:00,
2013-10-15 23:28:00,49.6,28.6,29.68,SSE,161,0.0,0.0,44,0.00,,CLR,0.00,VWS V14.01,2013-10-16 03:28:00,
2013-10-15 23:33:00,49.6,29.2,29.68,SSE,161,0.0,0.0,45,0.00,,CLR,0.00,VWS V14.01,2013-10-16 03:33:00,
2013-10-15 23:38:00,49.5,29.0,29.68,SSE,161,0.0,0.0,45,0.00,,CLR,0.00,VWS V14.01,2013-10-16 03:38:00,
2013-10-15 23:43:00,49.5,29.0,29.68,SSE,161,0.0,0.0,45,0.00,,CLR,0.00,VWS V14.01,2013-10-16 03:43:00,
2013-10-15 23:48:00,49.3,28.9,29.68,SSE,161,0.0,0.0,45,0.00,,CLR,0.00,VWS V14.01,2013-10-16 03:48:00,
2013-10-15 23:53:00,49.3,28.9,29.68,SSE,161,0.0,0.0,45,0.00,,CLR,0.00,VWS V14.01,2013-10-16 03:53:00,
2013-10-15 23:58:00,49.3,28.9,29.68,SSE,161,0.0,0.0,45,0.00,,CLR,0.00,VWS V14.01,2013-10-16 03:58:00,